Archival Weather

Kayes/Dag-Dag

Kayes/Dag-Dag, Mali (GAKD)

Report from: Thursday, February 22, 2024 2:00 AM UTC
Current time: Wednesday, April 24, 2024 7:49 PM UTC

Current weather – Weather history – Daily summaries
Weather forecast

Present weatherDust
Temperature26.0°C (78.8°F)
Dew point2.0°C (35.6°F)
Winds 8 kts (4.1 m/s, 9.2 mph) East (100°)
Visibility3.1 mi. (5 km)
Altimeter29.88 in.Hg (1012 mB)
Relative humidity21 %
Density altitude1,422 ft. (434 m)
Flight conditions Marginal Visual Meteorological Conditions
Raw dataGAKD 220200Z 10008KT 5000 DU NSC 26/02 Q1012
An error has occurred. This application may no longer respond until reloaded. Reload 🗙